sensor_id;sensor_type;location;lat;lon;timestamp;P1;durP1;ratioP1;P2;durP2;ratioP2
4290;SDS011;2159;50.906;7.152;2023-04-15T00:02:13;2.83;;;2.63;;
4290;SDS011;2159;50.906;7.152;2023-04-15T00:04:41;7.80;;;3.07;;
4290;SDS011;2159;50.906;7.152;2023-04-15T00:07:09;2.53;;;2.40;;
4290;SDS011;2159;50.906;7.152;2023-04-15T00:09:36;3.60;;;2.47;;
4290;SDS011;2159;50.906;7.152;2023-04-15T00:12:04;4.83;;;2.77;;
4290;SDS011;2159;50.906;7.152;2023-04-15T00:14:32;3.27;;;2.40;;
4290;SDS011;2159;50.906;7.152;2023-04-15T00:17:01;5.20;;;2.70;;
4290;SDS011;2159;50.906;7.152;2023-04-15T00:19:29;6.23;;;2.87;;
4290;SDS011;2159;50.906;7.152;2023-04-15T00:21:56;4.40;;;2.50;;
4290;SDS011;2159;50.906;7.152;2023-04-15T00:24:24;4.87;;;2.80;;
4290;SDS011;2159;50.906;7.152;2023-04-15T00:26:51;5.93;;;2.50;;
4290;SDS011;2159;50.906;7.152;2023-04-15T00:29:19;3.30;;;2.37;;
4290;SDS011;2159;50.906;7.152;2023-04-15T00:31:46;5.33;;;2.57;;
4290;SDS011;2159;50.906;7.152;2023-04-15T00:34:15;2.60;;;2.40;;
4290;SDS011;2159;50.906;7.152;2023-04-15T00:36:43;4.13;;;2.50;;
4290;SDS011;2159;50.906;7.152;2023-04-15T00:39:11;6.43;;;2.90;;
4290;SDS011;2159;50.906;7.152;2023-04-15T00:41:38;5.27;;;2.50;;
4290;SDS011;2159;50.906;7.152;2023-04-15T00:44:06;2.63;;;2.43;;
4290;SDS011;2159;50.906;7.152;2023-04-15T00:46:34;7.60;;;2.60;;
4290;SDS011;2159;50.906;7.152;2023-04-15T00:49:03;3.13;;;2.27;;
4290;SDS011;2159;50.906;7.152;2023-04-15T00:51:33;6.00;;;2.63;;
4290;SDS011;2159;50.906;7.152;2023-04-15T00:54:03;6.83;;;2.40;;
4290;SDS011;2159;50.906;7.152;2023-04-15T00:56:32;3.00;;;2.50;;
4290;SDS011;2159;50.906;7.152;2023-04-15T00:59:01;4.40;;;2.93;;
4290;SDS011;2159;50.906;7.152;2023-04-15T01:01:28;3.07;;;2.50;;
4290;SDS011;2159;50.906;7.152;2023-04-15T01:03:57;5.60;;;2.60;;
4290;SDS011;2159;50.906;7.152;2023-04-15T01:06:24;4.03;;;2.67;;
4290;SDS011;2159;50.906;7.152;2023-04-15T01:08:54;4.43;;;2.23;;
4290;SDS011;2159;50.906;7.152;2023-04-15T01:11:22;2.73;;;2.43;;
4290;SDS011;2159;50.906;7.152;2023-04-15T01:13:50;4.53;;;2.63;;
4290;SDS011;2159;50.906;7.152;2023-04-15T01:16:18;6.33;;;2.27;;
4290;SDS011;2159;50.906;7.152;2023-04-15T01:18:46;6.53;;;2.60;;
4290;SDS011;2159;50.906;7.152;2023-04-15T01:21:13;2.73;;;2.50;;
4290;SDS011;2159;50.906;7.152;2023-04-15T01:23:41;6.47;;;2.50;;
4290;SDS011;2159;50.906;7.152;2023-04-15T01:26:11;5.20;;;2.67;;
4290;SDS011;2159;50.906;7.152;2023-04-15T01:28:39;4.20;;;2.70;;
4290;SDS011;2159;50.906;7.152;2023-04-15T01:31:07;3.23;;;2.60;;
4290;SDS011;2159;50.906;7.152;2023-04-15T01:33:35;2.70;;;2.50;;
4290;SDS011;2159;50.906;7.152;2023-04-15T01:36:03;3.03;;;2.73;;
4290;SDS011;2159;50.906;7.152;2023-04-15T01:38:31;6.93;;;2.73;;
4290;SDS011;2159;50.906;7.152;2023-04-15T01:40:59;4.47;;;2.80;;
4290;SDS011;2159;50.906;7.152;2023-04-15T01:43:28;2.90;;;2.47;;
4290;SDS011;2159;50.906;7.152;2023-04-15T01:45:55;4.70;;;2.70;;
4290;SDS011;2159;50.906;7.152;2023-04-15T01:48:23;5.03;;;2.33;;
4290;SDS011;2159;50.906;7.152;2023-04-15T01:50:51;2.70;;;2.30;;
4290;SDS011;2159;50.906;7.152;2023-04-15T01:53:18;3.97;;;3.03;;
4290;SDS011;2159;50.906;7.152;2023-04-15T01:55:46;2.60;;;2.50;;
4290;SDS011;2159;50.906;7.152;2023-04-15T01:58:13;2.90;;;2.70;;
4290;SDS011;2159;50.906;7.152;2023-04-15T02:00:43;3.07;;;2.80;;
4290;SDS011;2159;50.906;7.152;2023-04-15T02:03:10;4.13;;;2.50;;
4290;SDS011;2159;50.906;7.152;2023-04-15T02:05:38;3.67;;;2.83;;
4290;SDS011;2159;50.906;7.152;2023-04-15T02:08:05;2.60;;;2.40;;
4290;SDS011;2159;50.906;7.152;2023-04-15T02:10:33;3.20;;;2.70;;
4290;SDS011;2159;50.906;7.152;2023-04-15T02:13:00;4.07;;;2.70;;
4290;SDS011;2159;50.906;7.152;2023-04-15T02:15:28;6.73;;;3.13;;
4290;SDS011;2159;50.906;7.152;2023-04-15T02:17:57;2.87;;;2.67;;
4290;SDS011;2159;50.906;7.152;2023-04-15T02:20:26;3.10;;;2.80;;
4290;SDS011;2159;50.906;7.152;2023-04-15T02:22:53;4.50;;;2.93;;
4290;SDS011;2159;50.906;7.152;2023-04-15T02:25:21;6.13;;;2.53;;
4290;SDS011;2159;50.906;7.152;2023-04-15T02:27:49;3.53;;;2.60;;
4290;SDS011;2159;50.906;7.152;2023-04-15T02:30:17;6.93;;;2.80;;
4290;SDS011;2159;50.906;7.152;2023-04-15T02:32:44;4.30;;;3.00;;
4290;SDS011;2159;50.906;7.152;2023-04-15T02:35:13;5.87;;;2.70;;
4290;SDS011;2159;50.906;7.152;2023-04-15T02:37:41;2.97;;;2.57;;
4290;SDS011;2159;50.906;7.152;2023-04-15T02:40:11;4.93;;;2.70;;
4290;SDS011;2159;50.906;7.152;2023-04-15T02:42:39;4.70;;;2.70;;
4290;SDS011;2159;50.906;7.152;2023-04-15T02:45:07;3.40;;;2.63;;
4290;SDS011;2159;50.906;7.152;2023-04-15T02:47:35;2.90;;;2.70;;
4290;SDS011;2159;50.906;7.152;2023-04-15T02:50:02;4.47;;;2.27;;
4290;SDS011;2159;50.906;7.152;2023-04-15T02:52:31;2.67;;;2.27;;
4290;SDS011;2159;50.906;7.152;2023-04-15T02:54:59;2.83;;;2.27;;
4290;SDS011;2159;50.906;7.152;2023-04-15T02:57:27;2.50;;;2.40;;
4290;SDS011;2159;50.906;7.152;2023-04-15T02:59:55;3.53;;;2.40;;
4290;SDS011;2159;50.906;7.152;2023-04-15T03:02:22;5.27;;;2.73;;
4290;SDS011;2159;50.906;7.152;2023-04-15T03:04:50;2.67;;;2.47;;
4290;SDS011;2159;50.906;7.152;2023-04-15T03:07:18;4.27;;;2.60;;
4290;SDS011;2159;50.906;7.152;2023-04-15T03:09:47;3.23;;;2.67;;
4290;SDS011;2159;50.906;7.152;2023-04-15T03:12:14;3.03;;;2.43;;
4290;SDS011;2159;50.906;7.152;2023-04-15T03:14:42;3.13;;;2.80;;
4290;SDS011;2159;50.906;7.152;2023-04-15T03:17:09;4.83;;;3.10;;
4290;SDS011;2159;50.906;7.152;2023-04-15T03:19:36;9.97;;;2.60;;
4290;SDS011;2159;50.906;7.152;2023-04-15T03:22:04;5.57;;;2.40;;
4290;SDS011;2159;50.906;7.152;2023-04-15T03:24:31;2.90;;;2.70;;
4290;SDS011;2159;50.906;7.152;2023-04-15T03:27:00;3.03;;;2.77;;
4290;SDS011;2159;50.906;7.152;2023-04-15T03:29:28;6.60;;;2.60;;
4290;SDS011;2159;50.906;7.152;2023-04-15T03:31:55;2.87;;;2.67;;
4290;SDS011;2159;50.906;7.152;2023-04-15T03:34:23;2.80;;;2.60;;
4290;SDS011;2159;50.906;7.152;2023-04-15T03:36:50;2.83;;;2.63;;
4290;SDS011;2159;50.906;7.152;2023-04-15T03:39:18;2.87;;;2.60;;
4290;SDS011;2159;50.906;7.152;2023-04-15T03:41:46;4.77;;;2.67;;
4290;SDS011;2159;50.906;7.152;2023-04-15T03:44:14;3.23;;;2.57;;
4290;SDS011;2159;50.906;7.152;2023-04-15T03:46:42;6.80;;;2.90;;
4290;SDS011;2159;50.906;7.152;2023-04-15T03:49:09;2.50;;;2.30;;
4290;SDS011;2159;50.906;7.152;2023-04-15T03:51:37;2.63;;;2.53;;
4290;SDS011;2159;50.906;7.152;2023-04-15T03:54:04;2.87;;;2.67;;
4290;SDS011;2159;50.906;7.152;2023-04-15T03:56:32;2.87;;;2.67;;
4290;SDS011;2159;50.906;7.152;2023-04-15T03:58:59;2.80;;;2.50;;
4290;SDS011;2159;50.906;7.152;2023-04-15T04:01:29;3.00;;;2.80;;
4290;SDS011;2159;50.906;7.152;2023-04-15T04:03:56;9.40;;;2.87;;
4290;SDS011;2159;50.906;7.152;2023-04-15T04:06:24;3.17;;;2.87;;
4290;SDS011;2159;50.906;7.152;2023-04-15T04:08:51;4.00;;;3.10;;
4290;SDS011;2159;50.906;7.152;2023-04-15T04:11:19;3.23;;;3.00;;
4290;SDS011;2159;50.906;7.152;2023-04-15T04:13:46;3.13;;;2.40;;
4290;SDS011;2159;50.906;7.152;2023-04-15T04:16:14;2.73;;;2.53;;
4290;SDS011;2159;50.906;7.152;2023-04-15T04:18:43;2.80;;;2.60;;
4290;SDS011;2159;50.906;7.152;2023-04-15T04:21:10;2.80;;;2.60;;
4290;SDS011;2159;50.906;7.152;2023-04-15T04:23:38;4.97;;;2.90;;
4290;SDS011;2159;50.906;7.152;2023-04-15T04:26:05;2.90;;;2.70;;
4290;SDS011;2159;50.906;7.152;2023-04-15T04:28:33;3.33;;;2.50;;
4290;SDS011;2159;50.906;7.152;2023-04-15T04:31:01;3.37;;;2.60;;
4290;SDS011;2159;50.906;7.152;2023-04-15T04:33:29;2.83;;;2.63;;
4290;SDS011;2159;50.906;7.152;2023-04-15T04:35:58;3.00;;;2.80;;
4290;SDS011;2159;50.906;7.152;2023-04-15T04:38:25;2.73;;;2.53;;
4290;SDS011;2159;50.906;7.152;2023-04-15T04:40:52;5.93;;;3.17;;
4290;SDS011;2159;50.906;7.152;2023-04-15T04:43:20;2.97;;;2.77;;
4290;SDS011;2159;50.906;7.152;2023-04-15T04:45:48;3.90;;;2.57;;
4290;SDS011;2159;50.906;7.152;2023-04-15T04:48:15;2.80;;;2.60;;
4290;SDS011;2159;50.906;7.152;2023-04-15T04:50:43;2.90;;;2.70;;
4290;SDS011;2159;50.906;7.152;2023-04-15T04:53:13;2.67;;;2.47;;
4290;SDS011;2159;50.906;7.152;2023-04-15T04:55:41;2.77;;;2.57;;
4290;SDS011;2159;50.906;7.152;2023-04-15T04:58:08;2.90;;;2.70;;
4290;SDS011;2159;50.906;7.152;2023-04-15T05:00:36;5.27;;;2.60;;
4290;SDS011;2159;50.906;7.152;2023-04-15T05:03:04;6.13;;;2.83;;
4290;SDS011;2159;50.906;7.152;2023-04-15T05:05:32;3.00;;;2.67;;
4290;SDS011;2159;50.906;7.152;2023-04-15T05:08:00;4.27;;;3.07;;
4290;SDS011;2159;50.906;7.152;2023-04-15T05:10:29;4.50;;;3.03;;
4290;SDS011;2159;50.906;7.152;2023-04-15T05:12:57;3.33;;;3.00;;
4290;SDS011;2159;50.906;7.152;2023-04-15T05:15:24;3.07;;;2.83;;
4290;SDS011;2159;50.906;7.152;2023-04-15T05:17:51;4.17;;;2.73;;
4290;SDS011;2159;50.906;7.152;2023-04-15T05:20:19;2.67;;;2.57;;
4290;SDS011;2159;50.906;7.152;2023-04-15T05:22:47;4.83;;;2.97;;
4290;SDS011;2159;50.906;7.152;2023-04-15T05:25:14;3.10;;;2.87;;
4290;SDS011;2159;50.906;7.152;2023-04-15T05:27:43;3.63;;;2.63;;
4290;SDS011;2159;50.906;7.152;2023-04-15T05:30:11;3.07;;;2.57;;
4290;SDS011;2159;50.906;7.152;2023-04-15T05:32:39;6.30;;;2.80;;
4290;SDS011;2159;50.906;7.152;2023-04-15T05:35:06;3.40;;;2.90;;
4290;SDS011;2159;50.906;7.152;2023-04-15T05:37:34;3.83;;;2.80;;
4290;SDS011;2159;50.906;7.152;2023-04-15T05:40:01;5.30;;;2.77;;
4290;SDS011;2159;50.906;7.152;2023-04-15T05:42:29;4.90;;;3.00;;
4290;SDS011;2159;50.906;7.152;2023-04-15T05:44:58;6.20;;;2.93;;
4290;SDS011;2159;50.906;7.152;2023-04-15T05:47:26;4.30;;;3.33;;
4290;SDS011;2159;50.906;7.152;2023-04-15T05:49:53;4.10;;;3.10;;
4290;SDS011;2159;50.906;7.152;2023-04-15T05:52:22;5.73;;;3.17;;
4290;SDS011;2159;50.906;7.152;2023-04-15T05:54:49;5.97;;;3.23;;
4290;SDS011;2159;50.906;7.152;2023-04-15T05:57:17;3.20;;;3.00;;
4290;SDS011;2159;50.906;7.152;2023-04-15T05:59:44;5.70;;;3.30;;
4290;SDS011;2159;50.906;7.152;2023-04-15T06:02:13;5.50;;;3.20;;
4290;SDS011;2159;50.906;7.152;2023-04-15T06:04:41;8.80;;;3.20;;
4290;SDS011;2159;50.906;7.152;2023-04-15T06:07:09;5.00;;;3.83;;
4290;SDS011;2159;50.906;7.152;2023-04-15T06:09:36;4.20;;;3.60;;
4290;SDS011;2159;50.906;7.152;2023-04-15T06:12:04;7.70;;;4.03;;
4290;SDS011;2159;50.906;7.152;2023-04-15T06:14:37;5.63;;;3.80;;
4290;SDS011;2159;50.906;7.152;2023-04-15T06:17:05;7.70;;;4.63;;
4290;SDS011;2159;50.906;7.152;2023-04-15T06:19:35;5.73;;;3.77;;
4290;SDS011;2159;50.906;7.152;2023-04-15T06:22:02;6.70;;;4.20;;
4290;SDS011;2159;50.906;7.152;2023-04-15T06:24:32;5.20;;;4.10;;
4290;SDS011;2159;50.906;7.152;2023-04-15T06:26:59;5.93;;;4.17;;
4290;SDS011;2159;50.906;7.152;2023-04-15T06:29:27;5.57;;;4.13;;
4290;SDS011;2159;50.906;7.152;2023-04-15T06:31:54;7.07;;;4.30;;
4290;SDS011;2159;50.906;7.152;2023-04-15T06:34:22;7.87;;;4.27;;
4290;SDS011;2159;50.906;7.152;2023-04-15T06:36:51;6.80;;;4.33;;
4290;SDS011;2159;50.906;7.152;2023-04-15T06:39:19;4.67;;;4.13;;
4290;SDS011;2159;50.906;7.152;2023-04-15T06:41:47;4.10;;;3.70;;
4290;SDS011;2159;50.906;7.152;2023-04-15T06:44:14;5.67;;;4.43;;
4290;SDS011;2159;50.906;7.152;2023-04-15T06:46:42;5.03;;;4.17;;
4290;SDS011;2159;50.906;7.152;2023-04-15T06:49:10;5.90;;;4.33;;
4290;SDS011;2159;50.906;7.152;2023-04-15T06:51:37;6.37;;;4.30;;
4290;SDS011;2159;50.906;7.152;2023-04-15T06:54:06;5.83;;;4.37;;
4290;SDS011;2159;50.906;7.152;2023-04-15T06:56:33;4.77;;;4.10;;
4290;SDS011;2159;50.906;7.152;2023-04-15T06:59:01;4.37;;;3.83;;
4290;SDS011;2159;50.906;7.152;2023-04-15T07:01:28;5.60;;;3.97;;
4290;SDS011;2159;50.906;7.152;2023-04-15T07:03:56;6.87;;;3.90;;
4290;SDS011;2159;50.906;7.152;2023-04-15T07:06:24;5.00;;;4.50;;
4290;SDS011;2159;50.906;7.152;2023-04-15T07:08:52;7.83;;;4.70;;
4290;SDS011;2159;50.906;7.152;2023-04-15T07:11:22;4.80;;;3.67;;
4290;SDS011;2159;50.906;7.152;2023-04-15T07:13:49;4.03;;;3.63;;
4290;SDS011;2159;50.906;7.152;2023-04-15T07:16:17;4.50;;;4.10;;
4290;SDS011;2159;50.906;7.152;2023-04-15T07:18:45;6.20;;;5.30;;
4290;SDS011;2159;50.906;7.152;2023-04-15T07:21:12;7.93;;;5.20;;
4290;SDS011;2159;50.906;7.152;2023-04-15T07:23:40;6.90;;;5.37;;
4290;SDS011;2159;50.906;7.152;2023-04-15T07:26:08;8.40;;;6.03;;
4290;SDS011;2159;50.906;7.152;2023-04-15T07:28:37;9.40;;;5.70;;
4290;SDS011;2159;50.906;7.152;2023-04-15T07:31:05;7.70;;;5.60;;
4290;SDS011;2159;50.906;7.152;2023-04-15T07:33:32;7.20;;;5.60;;
4290;SDS011;2159;50.906;7.152;2023-04-15T07:36:00;5.50;;;5.00;;
4290;SDS011;2159;50.906;7.152;2023-04-15T07:38:27;5.47;;;4.97;;
4290;SDS011;2159;50.906;7.152;2023-04-15T07:40:55;6.03;;;4.77;;
4290;SDS011;2159;50.906;7.152;2023-04-15T07:43:23;5.70;;;4.30;;
4290;SDS011;2159;50.906;7.152;2023-04-15T07:45:52;5.27;;;4.77;;
4290;SDS011;2159;50.906;7.152;2023-04-15T07:48:20;4.50;;;4.10;;
4290;SDS011;2159;50.906;7.152;2023-04-15T07:50:48;5.20;;;4.00;;
4290;SDS011;2159;50.906;7.152;2023-04-15T07:53:15;5.93;;;4.40;;
4290;SDS011;2159;50.906;7.152;2023-04-15T07:55:43;7.30;;;4.77;;
4290;SDS011;2159;50.906;7.152;2023-04-15T07:58:10;4.00;;;3.60;;
4290;SDS011;2159;50.906;7.152;2023-04-15T08:00:38;3.87;;;3.57;;
4290;SDS011;2159;50.906;7.152;2023-04-15T08:03:07;5.20;;;3.73;;
4290;SDS011;2159;50.906;7.152;2023-04-15T08:05:35;5.60;;;3.83;;
4290;SDS011;2159;50.906;7.152;2023-04-15T08:08:02;4.33;;;3.37;;
4290;SDS011;2159;50.906;7.152;2023-04-15T08:10:30;5.07;;;3.20;;
4290;SDS011;2159;50.906;7.152;2023-04-15T08:12:58;2.80;;;2.60;;
4290;SDS011;2159;50.906;7.152;2023-04-15T08:15:26;2.60;;;2.50;;
4290;SDS011;2159;50.906;7.152;2023-04-15T08:17:53;2.60;;;2.40;;
4290;SDS011;2159;50.906;7.152;2023-04-15T08:20:22;2.20;;;2.00;;
4290;SDS011;2159;50.906;7.152;2023-04-15T08:22:50;2.20;;;2.00;;
4290;SDS011;2159;50.906;7.152;2023-04-15T08:25:18;1.67;;;1.57;;
4290;SDS011;2159;50.906;7.152;2023-04-15T08:27:46;7.27;;;2.00;;
4290;SDS011;2159;50.906;7.152;2023-04-15T08:30:14;2.00;;;1.90;;
4290;SDS011;2159;50.906;7.152;2023-04-15T08:32:42;2.10;;;2.00;;
4290;SDS011;2159;50.906;7.152;2023-04-15T08:35:12;2.10;;;2.00;;
4290;SDS011;2159;50.906;7.152;2023-04-15T08:37:41;2.10;;;2.00;;
4290;SDS011;2159;50.906;7.152;2023-04-15T08:40:09;1.93;;;1.83;;
4290;SDS011;2159;50.906;7.152;2023-04-15T08:42:40;2.10;;;1.60;;
4290;SDS011;2159;50.906;7.152;2023-04-15T08:45:10;1.80;;;1.70;;
4290;SDS011;2159;50.906;7.152;2023-04-15T08:47:37;2.30;;;1.93;;
4290;SDS011;2159;50.906;7.152;2023-04-15T08:50:06;1.60;;;1.60;;
4290;SDS011;2159;50.906;7.152;2023-04-15T08:52:35;3.03;;;1.90;;
4290;SDS011;2159;50.906;7.152;2023-04-15T08:55:05;1.60;;;1.50;;
4290;SDS011;2159;50.906;7.152;2023-04-15T08:57:34;1.80;;;1.70;;
4290;SDS011;2159;50.906;7.152;2023-04-15T09:00:03;2.30;;;2.10;;
4290;SDS011;2159;50.906;7.152;2023-04-15T09:02:31;1.90;;;1.80;;
4290;SDS011;2159;50.906;7.152;2023-04-15T09:05:00;1.80;;;1.70;;
4290;SDS011;2159;50.906;7.152;2023-04-15T09:07:31;2.13;;;1.53;;
4290;SDS011;2159;50.906;7.152;2023-04-15T09:09:59;3.30;;;1.70;;
4290;SDS011;2159;50.906;7.152;2023-04-15T09:12:29;1.47;;;1.37;;
4290;SDS011;2159;50.906;7.152;2023-04-15T09:14:56;1.30;;;1.20;;
4290;SDS011;2159;50.906;7.152;2023-04-15T09:17:25;1.40;;;1.30;;
4290;SDS011;2159;50.906;7.152;2023-04-15T09:20:06;1.37;;;1.27;;
4290;SDS011;2159;50.906;7.152;2023-04-15T09:22:34;1.37;;;1.27;;
4290;SDS011;2159;50.906;7.152;2023-04-15T09:25:02;3.93;;;1.60;;
4290;SDS011;2159;50.906;7.152;2023-04-15T09:27:31;1.40;;;1.30;;
4290;SDS011;2159;50.906;7.152;2023-04-15T09:30:04;2.43;;;1.47;;
4290;SDS011;2159;50.906;7.152;2023-04-15T09:32:34;1.70;;;1.60;;
4290;SDS011;2159;50.906;7.152;2023-04-15T09:35:09;1.57;;;1.47;;
4290;SDS011;2159;50.906;7.152;2023-04-15T09:37:37;1.60;;;1.50;;
4290;SDS011;2159;50.906;7.152;2023-04-15T09:40:05;1.80;;;1.70;;
4290;SDS011;2159;50.906;7.152;2023-04-15T09:42:35;7.40;;;1.70;;
4290;SDS011;2159;50.906;7.152;2023-04-15T09:45:10;1.97;;;1.40;;
4290;SDS011;2159;50.906;7.152;2023-04-15T09:47:38;4.43;;;1.40;;
4290;SDS011;2159;50.906;7.152;2023-04-15T09:50:06;1.50;;;1.40;;
4290;SDS011;2159;50.906;7.152;2023-04-15T09:52:33;1.60;;;1.50;;
4290;SDS011;2159;50.906;7.152;2023-04-15T09:55:08;2.80;;;1.27;;
4290;SDS011;2159;50.906;7.152;2023-04-15T09:57:37;1.17;;;1.10;;
4290;SDS011;2159;50.906;7.152;2023-04-15T10:00:07;1.40;;;1.33;;
4290;SDS011;2159;50.906;7.152;2023-04-15T10:02:36;1.63;;;1.20;;
4290;SDS011;2159;50.906;7.152;2023-04-15T10:05:05;1.17;;;1.17;;
4290;SDS011;2159;50.906;7.152;2023-04-15T10:07:33;1.50;;;1.47;;
4290;SDS011;2159;50.906;7.152;2023-04-15T10:10:01;2.77;;;1.70;;
4290;SDS011;2159;50.906;7.152;2023-04-15T10:12:30;1.23;;;1.13;;
4290;SDS011;2159;50.906;7.152;2023-04-15T10:15:02;1.27;;;1.23;;
4290;SDS011;2159;50.906;7.152;2023-04-15T10:17:31;2.67;;;1.70;;
4290;SDS011;2159;50.906;7.152;2023-04-15T10:20:01;1.50;;;1.50;;
4290;SDS011;2159;50.906;7.152;2023-04-15T10:22:29;1.70;;;1.60;;
4290;SDS011;2159;50.906;7.152;2023-04-15T10:24:57;1.70;;;1.60;;
4290;SDS011;2159;50.906;7.152;2023-04-15T10:27:25;1.93;;;1.80;;
4290;SDS011;2159;50.906;7.152;2023-04-15T10:29:54;2.63;;;1.70;;
4290;SDS011;2159;50.906;7.152;2023-04-15T10:32:23;1.77;;;1.70;;
4290;SDS011;2159;50.906;7.152;2023-04-15T10:34:51;1.60;;;1.60;;
4290;SDS011;2159;50.906;7.152;2023-04-15T10:37:20;2.20;;;2.10;;
4290;SDS011;2159;50.906;7.152;2023-04-15T10:39:48;2.30;;;2.20;;
4290;SDS011;2159;50.906;7.152;2023-04-15T10:42:16;2.77;;;2.57;;
4290;SDS011;2159;50.906;7.152;2023-04-15T10:44:44;5.00;;;2.60;;
4290;SDS011;2159;50.906;7.152;2023-04-15T10:47:13;2.67;;;2.40;;
4290;SDS011;2159;50.906;7.152;2023-04-15T10:49:46;2.67;;;2.57;;
4290;SDS011;2159;50.906;7.152;2023-04-15T10:52:14;2.90;;;2.70;;
4290;SDS011;2159;50.906;7.152;2023-04-15T10:54:43;2.50;;;2.40;;
4290;SDS011;2159;50.906;7.152;2023-04-15T10:57:14;2.50;;;2.40;;
4290;SDS011;2159;50.906;7.152;2023-04-15T11:05:17;2.53;;;2.43;;
4290;SDS011;2159;50.906;7.152;2023-04-15T11:07:49;2.80;;;2.60;;
4290;SDS011;2159;50.906;7.152;2023-04-15T11:13:21;2.27;;;2.17;;
4290;SDS011;2159;50.906;7.152;2023-04-15T11:15:53;2.37;;;2.03;;
4290;SDS011;2159;50.906;7.152;2023-04-15T11:18:22;3.00;;;2.83;;
4290;SDS011;2159;50.906;7.152;2023-04-15T11:20:52;2.67;;;2.57;;
4290;SDS011;2159;50.906;7.152;2023-04-15T11:23:26;3.00;;;2.80;;
4290;SDS011;2159;50.906;7.152;2023-04-15T11:25:54;3.17;;;3.00;;
4290;SDS011;2159;50.906;7.152;2023-04-15T11:28:24;2.70;;;2.60;;
4290;SDS011;2159;50.906;7.152;2023-04-15T11:30:51;3.47;;;2.87;;
4290;SDS011;2159;50.906;7.152;2023-04-15T11:33:19;2.80;;;2.60;;
4290;SDS011;2159;50.906;7.152;2023-04-15T11:35:47;2.60;;;2.40;;
4290;SDS011;2159;50.906;7.152;2023-04-15T11:38:16;2.70;;;2.60;;
4290;SDS011;2159;50.906;7.152;2023-04-15T11:40:43;3.13;;;2.93;;
4290;SDS011;2159;50.906;7.152;2023-04-15T11:43:13;2.90;;;2.80;;
4290;SDS011;2159;50.906;7.152;2023-04-15T11:45:49;2.50;;;2.40;;
4290;SDS011;2159;50.906;7.152;2023-04-15T11:48:18;2.97;;;2.77;;
4290;SDS011;2159;50.906;7.152;2023-04-15T11:50:51;2.67;;;2.57;;
4290;SDS011;2159;50.906;7.152;2023-04-15T11:53:20;2.70;;;2.00;;
4290;SDS011;2159;50.906;7.152;2023-04-15T11:55:48;3.03;;;2.77;;
4290;SDS011;2159;50.906;7.152;2023-04-15T11:58:17;2.50;;;2.40;;
4290;SDS011;2159;50.906;7.152;2023-04-15T12:00:45;2.77;;;2.57;;
4290;SDS011;2159;50.906;7.152;2023-04-15T12:03:13;2.40;;;2.30;;
4290;SDS011;2159;50.906;7.152;2023-04-15T12:08:33;2.40;;;2.30;;
4290;SDS011;2159;50.906;7.152;2023-04-15T12:11:14;2.27;;;2.17;;
4290;SDS011;2159;50.906;7.152;2023-04-15T12:13:42;2.60;;;2.33;;
4290;SDS011;2159;50.906;7.152;2023-04-15T12:16:10;3.00;;;2.80;;
4290;SDS011;2159;50.906;7.152;2023-04-15T12:18:37;2.30;;;2.20;;
4290;SDS011;2159;50.906;7.152;2023-04-15T12:21:08;5.30;;;2.73;;
4290;SDS011;2159;50.906;7.152;2023-04-15T12:23:37;2.43;;;2.33;;
4290;SDS011;2159;50.906;7.152;2023-04-15T12:26:05;3.10;;;2.77;;
4290;SDS011;2159;50.906;7.152;2023-04-15T12:28:33;3.57;;;3.37;;
4290;SDS011;2159;50.906;7.152;2023-04-15T12:31:05;3.30;;;3.10;;
4290;SDS011;2159;50.906;7.152;2023-04-15T12:33:33;3.50;;;3.30;;
4290;SDS011;2159;50.906;7.152;2023-04-15T12:36:01;3.77;;;3.27;;
4290;SDS011;2159;50.906;7.152;2023-04-15T12:38:28;3.60;;;3.40;;
4290;SDS011;2159;50.906;7.152;2023-04-15T12:40:58;3.63;;;3.33;;
4290;SDS011;2159;50.906;7.152;2023-04-15T12:43:25;4.60;;;3.30;;
4290;SDS011;2159;50.906;7.152;2023-04-15T12:45:53;3.30;;;3.10;;
4290;SDS011;2159;50.906;7.152;2023-04-15T12:48:20;2.80;;;2.70;;
4290;SDS011;2159;50.906;7.152;2023-04-15T12:50:48;3.23;;;3.03;;
4290;SDS011;2159;50.906;7.152;2023-04-15T12:53:15;4.13;;;3.83;;
4290;SDS011;2159;50.906;7.152;2023-04-15T12:55:43;4.00;;;3.70;;
4290;SDS011;2159;50.906;7.152;2023-04-15T12:58:12;3.53;;;3.33;;
4290;SDS011;2159;50.906;7.152;2023-04-15T13:00:39;3.23;;;3.03;;
4290;SDS011;2159;50.906;7.152;2023-04-15T13:03:06;3.27;;;3.10;;
4290;SDS011;2159;50.906;7.152;2023-04-15T13:05:34;64.40;;;4.20;;
4290;SDS011;2159;50.906;7.152;2023-04-15T13:08:04;3.57;;;3.30;;
4290;SDS011;2159;50.906;7.152;2023-04-15T13:10:32;3.73;;;3.50;;
4290;SDS011;2159;50.906;7.152;2023-04-15T13:13:01;3.90;;;3.60;;
4290;SDS011;2159;50.906;7.152;2023-04-15T13:15:30;3.77;;;3.47;;
4290;SDS011;2159;50.906;7.152;2023-04-15T13:17:58;4.10;;;3.80;;
4290;SDS011;2159;50.906;7.152;2023-04-15T13:20:25;4.43;;;4.17;;
4290;SDS011;2159;50.906;7.152;2023-04-15T13:22:53;4.87;;;4.47;;
4290;SDS011;2159;50.906;7.152;2023-04-15T13:25:20;4.80;;;4.50;;
4290;SDS011;2159;50.906;7.152;2023-04-15T13:27:48;5.23;;;4.83;;
4290;SDS011;2159;50.906;7.152;2023-04-15T13:30:16;5.27;;;4.70;;
4290;SDS011;2159;50.906;7.152;2023-04-15T13:32:44;4.67;;;4.33;;
4290;SDS011;2159;50.906;7.152;2023-04-15T13:35:15;4.50;;;4.10;;
4290;SDS011;2159;50.906;7.152;2023-04-15T13:37:43;5.87;;;5.27;;
4290;SDS011;2159;50.906;7.152;2023-04-15T13:40:10;7.27;;;6.60;;
4290;SDS011;2159;50.906;7.152;2023-04-15T13:42:38;6.10;;;5.60;;
4290;SDS011;2159;50.906;7.152;2023-04-15T13:45:06;7.10;;;6.40;;
4290;SDS011;2159;50.906;7.152;2023-04-15T13:47:34;6.90;;;6.30;;
4290;SDS011;2159;50.906;7.152;2023-04-15T13:50:03;6.83;;;6.23;;
4290;SDS011;2159;50.906;7.152;2023-04-15T13:52:30;7.37;;;6.57;;
4290;SDS011;2159;50.906;7.152;2023-04-15T13:54:58;7.70;;;7.00;;
4290;SDS011;2159;50.906;7.152;2023-04-15T13:57:44;8.73;;;7.37;;
4290;SDS011;2159;50.906;7.152;2023-04-15T14:00:13;7.40;;;6.70;;
4290;SDS011;2159;50.906;7.152;2023-04-15T14:02:40;8.47;;;7.70;;
4290;SDS011;2159;50.906;7.152;2023-04-15T14:05:09;8.00;;;7.30;;
4290;SDS011;2159;50.906;7.152;2023-04-15T14:07:37;8.53;;;7.50;;
4290;SDS011;2159;50.906;7.152;2023-04-15T14:10:05;7.90;;;7.20;;
4290;SDS011;2159;50.906;7.152;2023-04-15T14:12:32;8.60;;;7.80;;
4290;SDS011;2159;50.906;7.152;2023-04-15T14:15:00;8.70;;;7.90;;
4290;SDS011;2159;50.906;7.152;2023-04-15T14:17:27;9.60;;;8.60;;
4290;SDS011;2159;50.906;7.152;2023-04-15T14:19:55;9.67;;;8.67;;
4290;SDS011;2159;50.906;7.152;2023-04-15T14:22:24;8.97;;;8.07;;
4290;SDS011;2159;50.906;7.152;2023-04-15T14:24:51;11.10;;;8.80;;
4290;SDS011;2159;50.906;7.152;2023-04-15T14:27:20;9.20;;;8.33;;
4290;SDS011;2159;50.906;7.152;2023-04-15T14:29:48;9.30;;;8.40;;
4290;SDS011;2159;50.906;7.152;2023-04-15T14:32:15;9.47;;;8.57;;
4290;SDS011;2159;50.906;7.152;2023-04-15T14:34:43;9.03;;;8.13;;
4290;SDS011;2159;50.906;7.152;2023-04-15T14:37:10;8.87;;;7.97;;
4290;SDS011;2159;50.906;7.152;2023-04-15T14:39:39;8.90;;;8.00;;
4290;SDS011;2159;50.906;7.152;2023-04-15T14:42:07;10.37;;;8.40;;
4290;SDS011;2159;50.906;7.152;2023-04-15T14:44:34;8.67;;;7.87;;
4290;SDS011;2159;50.906;7.152;2023-04-15T14:47:01;10.00;;;8.27;;
4290;SDS011;2159;50.906;7.152;2023-04-15T14:49:29;8.90;;;7.47;;
4290;SDS011;2159;50.906;7.152;2023-04-15T14:51:56;7.57;;;6.83;;
4290;SDS011;2159;50.906;7.152;2023-04-15T14:54:24;8.27;;;7.47;;
4290;SDS011;2159;50.906;7.152;2023-04-15T14:56:53;8.50;;;7.70;;
4290;SDS011;2159;50.906;7.152;2023-04-15T14:59:20;7.53;;;6.83;;
4290;SDS011;2159;50.906;7.152;2023-04-15T15:01:48;8.07;;;6.60;;
4290;SDS011;2159;50.906;7.152;2023-04-15T15:04:16;8.97;;;7.50;;
4290;SDS011;2159;50.906;7.152;2023-04-15T15:06:43;9.60;;;7.60;;
4290;SDS011;2159;50.906;7.152;2023-04-15T15:09:14;7.17;;;6.23;;
4290;SDS011;2159;50.906;7.152;2023-04-15T15:11:41;7.43;;;6.30;;
4290;SDS011;2159;50.906;7.152;2023-04-15T15:14:10;7.03;;;6.33;;
4290;SDS011;2159;50.906;7.152;2023-04-15T15:16:37;6.90;;;6.27;;
4290;SDS011;2159;50.906;7.152;2023-04-15T15:19:05;6.70;;;6.00;;
4290;SDS011;2159;50.906;7.152;2023-04-15T15:21:33;8.80;;;5.50;;
4290;SDS011;2159;50.906;7.152;2023-04-15T15:24:00;5.70;;;5.20;;
4290;SDS011;2159;50.906;7.152;2023-04-15T15:26:28;4.90;;;4.50;;
4290;SDS011;2159;50.906;7.152;2023-04-15T15:28:55;4.40;;;4.10;;
4290;SDS011;2159;50.906;7.152;2023-04-15T15:31:24;4.73;;;4.37;;
4290;SDS011;2159;50.906;7.152;2023-04-15T15:33:52;4.67;;;4.20;;